Accueil
METAR-TAF:

METAR-TAF

Aéroports :

Aéroport de Sherbrooke

Sherbrooke, Québec, Canada

latitude: 45-24N, longitude: 071-53W, altitude: 170 m

Observation

Le bulletin a été fait il y a 14 minutes, à 04:13 UTC
Vent 8 kt de nord-ouest
Température 3°C
Humidité 75%
Pression 1019 hPa
Visibilité: 14.5 km
Nuages fragmentés à une hauteur de 2200 ft
Ciel couvert à une hauteur de 4400 ft

METAR: CYSC 250413Z AUTO 32008KT 9SM BKN022 OVC044 03/M01 A3010 RMK SLP202

Heure: 00:27 (04:27 UTC)

Prévision

Le bulletin a été fait il y a 4 heures et 48 minutes, à 23:39 UTC
Prévision valable du 25 à 00 UTC au 25 à 03 UTC
Vent 8 kt de ouest/nord-ouest
Visibilité: 10 km
Ciel couvert à une hauteur de 4000 ft

TAF: CYSC 242339Z 2500/2503 30008KT P6SM OVC040 RMK FCST BASED ON AUTO OBS. NXT FCST WILL BE ISSUED AT 251045Z

Observations et prévisions météorologiques de plus de 4000 aéroports (messages METAR et TAF).

Les stations disponibles sont représentées par des disques jaunes et rouges sur la carte.

Passer la souris dessus pour voir le nom de la station.

Cliquer dessus pour voir les observations et prévisions météorologiques.

Pour changer de carte: cliquez sur les boutons verts avec une croix noire pour zoomer, sur le bouton vert avec un tiret pour effectuer un zoom arrière, ou sur les flèches vertes pour les cartes adjacentes.


METAR-TAF: